Time;durP1;ratioP1;P1;durP2;ratioP2;P2;SDS_P1;SDS_P2;PMS_P1;PMS_P2;Temp;Humidity;BMP_temperature;BMP_pressure;BME280_temperature;BME280_humidity;BME280_pressure;Samples;Min_cycle;Max_cycle;Signal;HPM_P1;HPM_P2
2022/01/19 00:01:09;;;;;;;61.60;25.07;;;3.70;99.90;;;;;;7340313;19;112106;-82
2022/01/19 00:03:36;;;;;;;60.43;24.50;;;3.70;99.90;;;;;;7336025;19;115269;-81
2022/01/19 00:06:05;;;;;;;48.50;21.77;;;3.70;99.90;;;;;;7336683;19;115798;-82
2022/01/19 00:08:32;;;;;;;58.30;24.17;;;3.80;99.90;;;;;;7335447;19;112398;-82
2022/01/19 00:10:59;;;;;;;54.20;24.37;;;3.80;99.90;;;;;;7335287;19;115614;-81
2022/01/19 00:13:26;;;;;;;45.43;21.50;;;3.90;99.90;;;;;;7336198;19;113136;-81
2022/01/19 00:15:54;;;;;;;55.43;23.67;;;3.90;99.90;;;;;;7337017;19;112313;-82
2022/01/19 00:18:23;;;;;;;52.93;22.67;;;3.90;99.90;;;;;;7342894;19;112849;-81
2022/01/19 00:20:52;;;;;;;49.30;21.93;;;3.80;99.90;;;;;;7335584;19;114751;-82
2022/01/19 00:23:21;;;;;;;45.83;21.27;;;3.80;99.90;;;;;;7338168;19;110225;-81
2022/01/19 00:25:49;;;;;;;47.63;22.77;;;3.80;99.90;;;;;;7335131;19;112122;-82
2022/01/19 00:28:17;;;;;;;54.07;22.17;;;3.70;99.90;;;;;;7336648;19;112288;-82
2022/01/19 00:30:44;;;;;;;42.07;20.23;;;3.70;99.90;;;;;;7334452;19;112676;-82
2022/01/19 00:33:13;;;;;;;43.93;20.67;;;3.70;99.90;;;;;;7337353;19;112072;-81
2022/01/19 00:35:41;;;;;;;46.00;21.80;;;3.60;99.90;;;;;;7338108;19;112565;-82
2022/01/19 00:38:09;;;;;;;50.33;20.87;;;3.50;99.90;;;;;;7334256;19;111638;-81
2022/01/19 00:40:38;;;;;;;41.00;20.17;;;3.50;99.90;;;;;;7342651;19;112292;-82
2022/01/19 00:43:06;;;;;;;49.70;22.13;;;3.50;99.90;;;;;;7334133;19;111709;-81
2022/01/19 00:45:33;;;;;;;43.33;21.70;;;3.40;99.90;;;;;;7335936;19;112182;-82
2022/01/19 00:48:20;;;;;;;46.50;21.60;;;3.40;99.90;;;;;;7334753;19;113955;-81
2022/01/19 00:50:47;;;;;;;50.27;21.93;;;3.40;99.90;;;;;;7334900;19;112776;-81
2022/01/19 00:53:14;;;;;;;38.73;19.50;;;3.30;99.90;;;;;;7337642;19;112863;-82
2022/01/19 00:55:41;;;;;;;42.87;20.43;;;3.40;99.90;;;;;;7333856;19;113883;-82
2022/01/19 00:58:08;;;;;;;47.13;20.23;;;3.30;99.90;;;;;;7338192;19;112276;-82
2022/01/19 01:00:35;;;;;;;46.60;20.57;;;3.30;99.90;;;;;;7339299;19;113456;-81
2022/01/19 01:03:04;;;;;;;47.33;20.67;;;3.20;99.90;;;;;;7336129;19;113016;-81
2022/01/19 01:05:32;;;;;;;38.93;18.50;;;3.20;99.90;;;;;;7331649;19;112445;-81
2022/01/19 01:08:00;;;;;;;50.47;21.83;;;3.20;99.90;;;;;;7334765;19;112877;-82
2022/01/19 01:10:29;;;;;;;53.83;21.47;;;3.20;99.90;;;;;;7332238;19;112921;-81
2022/01/19 01:13:16;;;;;;;60.00;22.00;;;3.10;99.90;;;;;;7335662;19;112063;-82
2022/01/19 01:16:01;;;;;;;51.03;21.03;;;3.00;99.90;;;;;;7335997;19;115455;-81
2022/01/19 01:18:30;;;;;;;53.93;21.10;;;2.90;99.90;;;;;;7335162;19;112929;-82
2022/01/19 01:20:59;;;;;;;46.10;20.23;;;3.00;99.90;;;;;;7337321;19;116323;-82
2022/01/19 01:23:29;;;;;;;64.03;23.50;;;2.90;99.90;;;;;;7342370;19;112123;-82
2022/01/19 01:25:56;;;;;;;71.30;23.87;;;2.90;99.90;;;;;;7343087;19;112362;-81
2022/01/19 01:28:24;;;;;;;54.00;24.30;;;2.90;99.90;;;;;;7340797;19;114657;-81
2022/01/19 01:30:52;;;;;;;52.27;23.43;;;2.80;99.90;;;;;;7341435;19;115388;-81
2022/01/19 01:33:19;;;;;;;49.63;22.73;;;2.80;99.90;;;;;;7343509;19;112323;-81
2022/01/19 01:35:47;;;;;;;46.33;22.47;;;2.80;99.90;;;;;;7339577;19;112465;-81
2022/01/19 01:38:15;;;;;;;45.27;21.47;;;2.80;99.90;;;;;;7344554;19;113320;-82
2022/01/19 01:41:02;;;;;;;271.17;22.42;;;2.90;99.90;;;;;;7339275;19;113745;-81
2022/01/19 01:43:29;;;;;;;38.67;18.73;;;2.80;99.90;;;;;;7342246;19;112419;-82
2022/01/19 01:46:03;;;;;;;396.07;26.07;;;2.80;99.90;;;;;;7346673;19;112410;-82
2022/01/19 01:48:31;;;;;;;229.40;21.50;;;2.70;99.90;;;;;;7340483;19;112395;-82
2022/01/19 01:53:43;;;;;;;273.77;24.13;;;2.50;99.90;;;;;;7340439;19;112247;-82
2022/01/19 01:56:16;;;;;;;33.63;19.27;;;2.40;99.90;;;;;;7341480;19;112236;-82
2022/01/19 01:58:45;;;;;;;57.70;19.83;;;2.40;99.90;;;;;;7338182;19;112707;-82
2022/01/19 02:01:12;;;;;;;35.50;18.43;;;2.40;99.90;;;;;;7343067;19;115033;-81
2022/01/19 02:03:42;;;;;;;47.93;18.33;;;2.50;99.90;;;;;;7339057;19;114978;-82
2022/01/19 02:09:13;;;;;;;40.00;17.00;;;2.60;99.90;;;;;;7348251;19;110693;-81
2022/01/19 02:22:58;;;;;;;24.90;14.67;;;2.70;99.90;;;;;;7343016;19;112206;-82
2022/01/19 02:25:29;;;;;;;22.63;15.07;;;2.70;99.90;;;;;;7338331;19;112302;-81
2022/01/19 02:41:39;;;;;;;23.13;14.30;;;2.60;99.90;;;;;;7341069;19;113020;-82
2022/01/19 02:44:12;;;;;;;23.53;15.73;;;2.60;99.90;;;;;;7338994;19;112017;-82
2022/01/19 02:49:21;;;;;;;22.97;15.40;;;2.60;99.90;;;;;;7341807;19;112075;-82
2022/01/19 02:51:51;;;;;;;25.60;16.17;;;2.70;99.90;;;;;;7338183;19;110629;-82
2022/01/19 02:54:21;;;;;;;28.47;15.57;;;2.70;99.90;;;;;;7341335;19;111476;-82
2022/01/19 02:56:52;;;;;;;53.97;16.00;;;2.70;99.90;;;;;;7343016;19;112499;-82
2022/01/19 02:59:34;;;;;;;25.87;16.03;;;2.70;99.90;;;;;;7339932;19;112960;-82
2022/01/19 03:10:17;;;;;;;31.63;18.20;;;2.50;99.90;;;;;;7337724;19;114643;-82
2022/01/19 03:12:44;;;;;;;32.47;17.17;;;2.50;99.90;;;;;;7338631;19;111076;-82
2022/01/19 03:15:12;;;;;;;36.03;18.40;;;2.60;99.90;;;;;;7339954;19;113810;-82
2022/01/19 03:17:40;;;;;;;56.07;19.47;;;2.50;99.90;;;;;;7341715;19;113309;-82
2022/01/19 03:20:09;;;;;;;27.83;17.33;;;2.60;99.90;;;;;;7340848;19;112569;-81
2022/01/19 03:22:42;;;;;;;24.97;16.27;;;2.60;99.90;;;;;;7335730;19;110842;-81
2022/01/19 03:25:12;;;;;;;35.40;17.53;;;2.60;99.90;;;;;;7340938;19;111786;-81
2022/01/19 03:27:40;;;;;;;30.83;17.53;;;2.50;99.90;;;;;;7335685;19;113059;-82
2022/01/19 03:30:08;;;;;;;316.67;24.77;;;2.60;99.90;;;;;;7338120;19;112404;-81
2022/01/19 03:32:35;;;;;;;177.50;21.40;;;2.50;99.90;;;;;;7340200;19;111917;-81
2022/01/19 03:35:03;;;;;;;267.47;23.77;;;2.40;99.90;;;;;;7337346;19;111817;-82
2022/01/19 03:37:30;;;;;;;260.73;23.83;;;2.30;99.90;;;;;;7337013;19;112970;-81
2022/01/19 03:39:57;;;;;;;101.33;23.23;;;2.30;99.90;;;;;;7342556;19;112382;-81
2022/01/19 03:42:25;;;;;;;189.57;24.33;;;2.20;99.90;;;;;;7339398;19;115811;-82
2022/01/19 03:44:51;;;;;;;150.17;23.53;;;2.10;99.90;;;;;;7337295;19;114983;-82
2022/01/19 03:47:19;;;;;;;38.90;21.40;;;2.00;99.90;;;;;;7337470;19;112040;-81
2022/01/19 03:49:46;;;;;;;36.17;20.17;;;2.10;99.90;;;;;;7335220;19;112533;-81
2022/01/19 03:52:13;;;;;;;32.53;19.33;;;2.20;99.90;;;;;;7337761;19;115557;-81
2022/01/19 03:54:43;;;;;;;141.10;23.93;;;2.30;99.90;;;;;;7337049;19;114852;-82
2022/01/19 03:57:11;;;;;;;61.30;20.87;;;2.30;99.90;;;;;;7336996;19;113053;-82
2022/01/19 03:59:39;;;;;;;33.67;20.27;;;2.30;99.90;;;;;;7338164;19;110918;-82
2022/01/19 04:02:06;;;;;;;41.83;20.37;;;2.20;99.90;;;;;;7341711;19;112412;-82
2022/01/19 04:04:45;;;;;;;35.90;19.70;;;2.20;99.90;;;;;;7341065;19;112227;-82
2022/01/19 04:07:31;;;;;;;36.50;19.27;;;2.30;99.90;;;;;;7336147;19;112175;-82
2022/01/19 04:09:58;;;;;;;36.40;20.40;;;2.30;99.90;;;;;;7337166;19;110782;-82
2022/01/19 04:12:54;;;;;;;37.30;19.97;;;2.30;99.90;;;;;;7334144;19;112288;-81
2022/01/19 04:15:15;;;;;;;33.92;19.55;;;2.40;99.90;;;;;;7337653;19;112369;-81
2022/01/19 04:17:50;;;;;;;35.33;18.73;;;2.40;99.90;;;;;;7338824;19;112654;-82
2022/01/19 04:20:18;;;;;;;35.53;20.03;;;2.40;99.90;;;;;;7335315;19;114664;-81
2022/01/19 04:22:45;;;;;;;36.20;20.63;;;2.40;99.90;;;;;;7338083;19;112216;-81
2022/01/19 04:25:13;;;;;;;40.33;19.97;;;2.40;99.90;;;;;;7339404;19;113931;-81
2022/01/19 04:27:42;;;;;;;38.03;20.23;;;2.40;99.90;;;;;;7338449;19;112098;-81
2022/01/19 04:30:13;;;;;;;36.17;19.77;;;2.40;99.90;;;;;;7333686;19;112558;-82
2022/01/19 04:35:24;;;;;;;41.27;20.17;;;2.40;99.90;;;;;;7338995;19;113054;-82
2022/01/19 04:38:09;;;;;;;38.03;20.80;;;2.40;99.90;;;;;;7333763;19;112721;-81
2022/01/19 05:07:26;;;;;;;52.33;22.70;;;2.70;99.90;;;;;;7344336;19;112518;-81
2022/01/19 05:15:14;;;;;;;49.93;21.80;;;2.80;99.90;;;;;;7343079;19;112069;-82
2022/01/19 05:17:41;;;;;;;56.30;23.57;;;2.90;99.90;;;;;;7340664;19;112458;-82
2022/01/19 05:20:11;;;;;;;52.93;22.17;;;2.90;99.90;;;;;;7342295;19;112860;-82
2022/01/19 05:22:38;;;;;;;52.00;22.77;;;3.00;99.90;;;;;;7340072;19;111291;-82
2022/01/19 05:25:05;;;;;;;59.40;24.20;;;3.00;99.90;;;;;;7341701;19;112236;-81
2022/01/19 05:27:32;;;;;;;48.33;21.63;;;3.00;99.90;;;;;;7339732;19;114577;-82
2022/01/19 05:29:59;;;;;;;53.20;24.10;;;3.00;99.90;;;;;;7336661;19;111785;-81
2022/01/19 05:32:26;;;;;;;51.37;22.53;;;3.10;99.90;;;;;;7349078;19;113178;-81
2022/01/19 05:34:53;;;;;;;49.00;22.23;;;3.10;99.90;;;;;;7339766;19;111893;-81
2022/01/19 05:37:20;;;;;;;47.43;21.57;;;3.10;99.90;;;;;;7343415;19;111947;-81
2022/01/19 05:39:47;;;;;;;50.80;22.00;;;3.20;99.90;;;;;;7340022;19;112915;-82
2022/01/19 05:42:15;;;;;;;47.50;22.47;;;3.20;99.90;;;;;;7342362;19;112545;-82
2022/01/19 05:44:44;;;;;;;54.03;21.67;;;3.20;99.90;;;;;;7339762;19;112007;-82
2022/01/19 05:47:16;;;;;;;48.27;21.17;;;3.30;99.90;;;;;;7341532;19;113209;-82
2022/01/19 05:49:43;;;;;;;47.30;20.93;;;3.30;99.90;;;;;;7339508;19;112220;-82
2022/01/19 05:52:11;;;;;;;45.07;20.87;;;3.30;99.90;;;;;;7340232;19;112089;-81
2022/01/19 05:54:39;;;;;;;45.40;20.43;;;3.40;99.90;;;;;;7347811;19;115364;-82
2022/01/19 05:57:06;;;;;;;44.23;20.33;;;3.40;99.90;;;;;;7338395;19;112291;-82
2022/01/19 05:59:34;;;;;;;45.77;21.07;;;3.40;99.90;;;;;;7343890;19;115190;-82
2022/01/19 06:02:02;;;;;;;42.37;19.73;;;3.40;99.90;;;;;;7337164;19;110489;-82
2022/01/19 06:04:29;;;;;;;43.00;20.20;;;3.50;99.90;;;;;;7341145;19;110883;-82
2022/01/19 06:06:57;;;;;;;38.17;19.03;;;3.50;99.90;;;;;;7339253;19;112106;-82
2022/01/19 06:09:47;;;;;;;38.87;19.13;;;3.60;99.90;;;;;;7337760;19;115358;-82
2022/01/19 06:12:16;;;;;;;49.27;21.17;;;3.50;99.90;;;;;;7341392;19;112488;-82
2022/01/19 06:14:44;;;;;;;51.03;19.47;;;3.60;99.90;;;;;;7338584;19;111374;-82
2022/01/19 06:17:13;;;;;;;48.63;20.87;;;3.60;99.90;;;;;;7345621;19;114004;-82
2022/01/19 06:19:41;;;;;;;46.87;20.67;;;3.60;99.90;;;;;;7335444;19;111098;-82
2022/01/19 06:22:08;;;;;;;50.23;21.03;;;3.70;99.90;;;;;;7340389;19;112274;-81
2022/01/19 06:24:35;;;;;;;50.77;22.70;;;3.60;99.90;;;;;;7336626;19;112642;-82
2022/01/19 06:27:02;;;;;;;45.27;21.73;;;3.70;99.90;;;;;;7337758;19;111123;-82
2022/01/19 06:29:29;;;;;;;53.77;23.10;;;3.70;99.90;;;;;;7338379;19;112721;-82
2022/01/19 06:31:56;;;;;;;47.77;21.80;;;3.80;99.90;;;;;;7340660;19;111222;-82
2022/01/19 06:34:23;;;;;;;44.43;20.67;;;3.80;99.90;;;;;;7339130;19;115089;-82
2022/01/19 06:36:52;;;;;;;52.90;22.27;;;3.80;99.90;;;;;;7337890;19;110807;-81
2022/01/19 06:39:21;;;;;;;53.50;22.97;;;3.80;99.90;;;;;;7345099;19;112016;-80
2022/01/19 06:41:48;;;;;;;54.20;23.80;;;3.90;99.90;;;;;;7335968;19;110407;-80
2022/01/19 06:44:16;;;;;;;55.80;23.33;;;3.90;99.90;;;;;;7340583;19;111784;-82
2022/01/19 06:46:44;;;;;;;59.17;23.13;;;3.90;99.90;;;;;;7337752;19;112453;-81
2022/01/19 06:49:12;;;;;;;55.93;22.33;;;4.00;99.90;;;;;;7337669;19;112385;-81
2022/01/19 06:51:39;;;;;;;56.20;24.37;;;4.00;99.90;;;;;;7336213;19;112406;-81
2022/01/19 06:54:06;;;;;;;45.97;22.60;;;4.00;99.90;;;;;;7337361;19;112997;-81
2022/01/19 06:56:37;;;;;;;50.50;22.97;;;4.10;99.90;;;;;;7341650;19;111209;-81
2022/01/19 06:59:05;;;;;;;53.70;24.30;;;4.10;99.90;;;;;;7338697;19;111906;-81
2022/01/19 07:01:33;;;;;;;49.70;22.03;;;4.10;99.90;;;;;;7346557;19;110057;-81
2022/01/19 07:04:02;;;;;;;48.50;22.83;;;4.10;99.90;;;;;;7339495;19;111931;-82
2022/01/19 07:06:30;;;;;;;52.07;22.47;;;4.10;99.90;;;;;;7341208;19;112924;-81
2022/01/19 07:08:57;;;;;;;45.43;22.00;;;4.20;99.90;;;;;;7337770;19;112011;-81
2022/01/19 07:11:24;;;;;;;49.50;23.97;;;4.20;99.90;;;;;;7339578;19;111582;-81
2022/01/19 07:13:51;;;;;;;45.73;21.13;;;4.30;99.90;;;;;;7339042;19;115487;-81
2022/01/19 07:16:18;;;;;;;39.60;22.10;;;4.30;99.90;;;;;;7340104;19;112259;-82
2022/01/19 07:18:45;;;;;;;45.10;21.20;;;4.30;99.90;;;;;;7340584;19;112899;-81
2022/01/19 07:21:12;;;;;;;41.10;20.67;;;4.30;99.90;;;;;;7344114;19;112441;-81
2022/01/19 07:23:39;;;;;;;41.00;20.77;;;4.30;99.90;;;;;;7342123;19;112482;-81
2022/01/19 07:26:06;;;;;;;39.93;20.77;;;4.40;99.90;;;;;;7336694;19;113438;-81
2022/01/19 07:28:33;;;;;;;38.17;20.73;;;4.40;99.90;;;;;;7340534;19;115320;-82
2022/01/19 07:31:01;;;;;;;37.20;19.60;;;4.40;99.90;;;;;;7336462;19;112441;-83
2022/01/19 07:33:31;;;;;;;31.03;18.50;;;4.50;99.90;;;;;;7338372;19;112865;-81
2022/01/19 07:35:58;;;;;;;37.33;18.20;;;4.50;99.90;;;;;;7337112;19;112384;-82
2022/01/19 07:38:26;;;;;;;30.87;17.77;;;4.50;99.90;;;;;;7337239;19;115432;-81
2022/01/19 07:40:54;;;;;;;32.80;17.50;;;4.60;99.90;;;;;;7339006;19;112726;-81
2022/01/19 07:43:21;;;;;;;32.07;17.30;;;4.60;99.90;;;;;;7342110;19;111911;-82
2022/01/19 07:45:49;;;;;;;30.77;17.10;;;4.60;99.90;;;;;;7339757;19;111106;-82
2022/01/19 07:48:16;;;;;;;34.80;17.50;;;4.60;99.90;;;;;;7336773;19;112234;-81
2022/01/19 07:50:43;;;;;;;34.53;18.10;;;4.70;99.90;;;;;;7337019;19;110396;-82
2022/01/19 07:53:10;;;;;;;34.80;18.57;;;4.80;99.90;;;;;;7336762;19;112457;-82
2022/01/19 07:55:38;;;;;;;35.33;20.00;;;4.80;99.90;;;;;;7339343;19;112652;-82
2022/01/19 07:58:05;;;;;;;37.33;19.47;;;4.80;99.90;;;;;;7337113;19;112819;-81
2022/01/19 08:00:35;;;;;;;36.30;20.03;;;4.90;99.90;;;;;;7336959;19;114692;-82
2022/01/19 08:03:02;;;;;;;36.53;20.70;;;4.90;99.90;;;;;;7338259;19;113915;-81
2022/01/19 08:05:29;;;;;;;41.13;20.37;;;4.90;99.90;;;;;;7341340;19;112639;-81
2022/01/19 08:07:56;;;;;;;37.03;20.13;;;4.90;99.90;;;;;;7340533;19;110575;-82
2022/01/19 08:10:24;;;;;;;36.80;20.83;;;5.00;99.90;;;;;;7334632;19;115069;-82
2022/01/19 08:12:52;;;;;;;39.20;21.97;;;5.00;99.90;;;;;;7340890;19;113114;-81
2022/01/19 08:15:19;;;;;;;39.80;21.53;;;5.00;99.90;;;;;;7334204;19;112390;-82
2022/01/19 08:17:46;;;;;;;45.10;23.33;;;4.90;99.90;;;;;;7338751;19;112735;-81
2022/01/19 08:20:13;;;;;;;43.47;22.57;;;5.00;99.90;;;;;;7336991;19;112933;-82
2022/01/19 08:22:40;;;;;;;44.17;22.87;;;5.00;99.90;;;;;;7337251;19;113280;-81
2022/01/19 08:25:08;;;;;;;47.80;23.20;;;5.00;99.90;;;;;;7337526;19;115204;-81
2022/01/19 08:27:35;;;;;;;41.00;22.17;;;5.00;99.90;;;;;;7343063;19;113038;-82
2022/01/19 08:30:06;;;;;;;41.73;22.40;;;5.00;99.90;;;;;;7337820;19;112548;-82
2022/01/19 08:32:35;;;;;;;45.33;22.73;;;5.00;99.90;;;;;;7335794;19;116112;-81
2022/01/19 08:35:04;;;;;;;45.17;22.40;;;5.00;99.90;;;;;;7345198;19;111855;-82
2022/01/19 08:37:31;;;;;;;44.47;22.97;;;5.00;99.90;;;;;;7341369;19;114243;-82
2022/01/19 08:39:59;;;;;;;45.13;23.27;;;5.00;99.90;;;;;;7344578;19;115880;-81
2022/01/19 08:42:27;;;;;;;41.93;23.10;;;5.10;99.90;;;;;;7344029;19;112157;-82
2022/01/19 08:44:54;;;;;;;44.20;23.13;;;5.10;99.90;;;;;;7344176;19;112583;-82
2022/01/19 08:47:22;;;;;;;41.23;22.07;;;5.10;99.90;;;;;;7343564;19;112603;-82
2022/01/19 08:49:53;;;;;;;43.40;22.47;;;5.10;99.90;;;;;;7348301;19;110898;-82
2022/01/19 08:52:20;;;;;;;39.17;20.40;;;5.10;99.90;;;;;;7344730;19;112451;-81
2022/01/19 08:54:48;;;;;;;40.37;21.23;;;5.20;99.90;;;;;;7343178;19;114574;-81
2022/01/19 08:57:16;;;;;;;42.80;22.57;;;5.20;99.90;;;;;;7346546;19;112515;-81
2022/01/19 08:59:43;;;;;;;41.10;21.93;;;5.20;99.90;;;;;;7344040;19;111885;-81
2022/01/19 09:02:10;;;;;;;42.40;22.10;;;5.20;99.90;;;;;;7343508;19;110828;-81
2022/01/19 09:04:37;;;;;;;40.40;22.60;;;5.20;99.90;;;;;;7342879;19;112813;-83
2022/01/19 09:07:13;;;;;;;40.87;23.23;;;5.20;99.90;;;;;;7342088;19;115412;-82
2022/01/19 09:09:40;;;;;;;46.07;22.80;;;5.20;99.90;;;;;;7344863;19;111819;-81
2022/01/19 09:12:08;;;;;;;49.73;24.13;;;5.20;99.90;;;;;;7346216;19;112565;-81
2022/01/19 09:14:35;;;;;;;43.30;22.10;;;5.30;99.90;;;;;;7343633;19;112414;-81
2022/01/19 09:17:07;;;;;;;46.27;23.60;;;5.30;99.90;;;;;;7341739;19;112596;-81
2022/01/19 09:19:37;;;;;;;39.17;22.80;;;5.30;99.90;;;;;;7343895;19;112011;-82
2022/01/19 09:22:06;;;;;;;42.87;23.70;;;5.30;99.90;;;;;;7340877;19;111677;-82
2022/01/19 09:24:34;;;;;;;39.97;22.90;;;5.30;99.90;;;;;;7345232;19;114409;-83
2022/01/19 09:27:02;;;;;;;42.47;24.00;;;5.30;99.90;;;;;;7345413;19;116984;-82
2022/01/19 09:29:30;;;;;;;40.90;22.90;;;5.30;99.90;;;;;;7341797;19;112414;-82
2022/01/19 09:32:00;;;;;;;41.93;23.40;;;5.30;99.90;;;;;;7348831;19;114923;-82
2022/01/19 09:34:27;;;;;;;41.07;23.57;;;5.30;99.90;;;;;;7339800;19;110516;-82
2022/01/19 09:36:55;;;;;;;40.57;23.57;;;5.30;99.90;;;;;;7345702;19;112370;-82
2022/01/19 09:39:24;;;;;;;42.33;23.53;;;5.20;99.90;;;;;;7339816;19;112301;-82
2022/01/19 09:41:54;;;;;;;41.77;25.00;;;5.30;99.90;;;;;;7342814;19;112192;-82
2022/01/19 09:44:23;;;;;;;44.00;24.30;;;5.30;99.90;;;;;;7339873;19;114886;-83
2022/01/19 09:46:51;;;;;;;43.83;24.30;;;5.30;99.90;;;;;;7341369;19;114919;-83
2022/01/19 09:49:20;;;;;;;47.53;24.57;;;5.30;99.90;;;;;;7342798;19;112358;-83
2022/01/19 09:51:49;;;;;;;47.27;25.13;;;5.30;99.90;;;;;;7341327;19;114821;-83
2022/01/19 09:54:26;;;;;;;45.70;24.83;;;5.30;99.90;;;;;;7350212;19;113021;-83
2022/01/19 09:56:54;;;;;;;49.87;26.60;;;5.30;99.90;;;;;;7342064;19;112333;-83
2022/01/19 09:59:23;;;;;;;46.33;26.03;;;5.40;99.90;;;;;;7343343;19;113255;-83
2022/01/19 10:01:52;;;;;;;45.57;25.27;;;5.40;99.90;;;;;;7341049;19;111790;-83
2022/01/19 10:04:24;;;;;;;46.13;25.17;;;5.40;99.90;;;;;;7342726;19;111381;-83
2022/01/19 10:07:09;;;;;;;50.67;25.10;;;5.40;99.90;;;;;;7339673;19;113239;-83
2022/01/19 10:09:58;;;;;;;46.40;25.17;;;5.50;99.90;;;;;;7340762;19;115537;-83
2022/01/19 10:18:33;;;;;;;49.07;26.50;;;5.50;99.90;;;;;;7343538;19;114622;-83
2022/01/19 10:21:18;;;;;;;42.63;24.70;;;5.50;99.90;;;;;;7340509;19;111659;-83
2022/01/19 10:23:48;;;;;;;50.73;25.57;;;5.50;99.90;;;;;;7338282;19;113990;-83
2022/01/19 10:26:25;;;;;;;45.83;26.67;;;5.50;99.90;;;;;;7343108;19;112394;-83
2022/01/19 10:29:26;;;;;;;50.30;27.97;;;5.40;99.90;;;;;;7339310;19;115495;-83
2022/01/19 10:32:02;;;;;;;53.60;26.93;;;5.50;99.90;;;;;;7336443;19;112177;-83
2022/01/19 10:34:29;;;;;;;47.45;26.48;;;5.50;99.90;;;;;;7342009;19;112816;-83
2022/01/19 10:36:57;;;;;;;45.80;26.70;;;5.50;99.90;;;;;;7338638;19;113137;-83
2022/01/19 10:39:37;;;;;;;48.17;26.40;;;5.50;99.90;;;;;;7342408;19;112054;-83
2022/01/19 10:42:16;;;;;;;47.97;25.60;;;5.50;99.90;;;;;;7343702;19;115152;-83
2022/01/19 10:44:52;;;;;;;43.17;25.13;;;5.60;99.90;;;;;;7340318;19;110717;-83
2022/01/19 10:47:56;;;;;;;48.53;27.77;;;5.60;99.90;;;;;;7342826;19;112414;-83
2022/01/19 10:50:26;;;;;;;52.78;28.73;;;5.60;99.90;;;;;;7339907;19;116081;-83
2022/01/19 10:52:54;;;;;;;52.13;27.77;;;5.60;99.90;;;;;;7342330;19;111938;-83
2022/01/19 10:55:39;;;;;;;51.50;28.73;;;5.70;99.90;;;;;;7337519;19;111289;-83
2022/01/19 10:58:15;;;;;;;44.83;27.10;;;5.70;99.90;;;;;;7340966;19;112352;-83
2022/01/19 11:00:51;;;;;;;54.03;28.07;;;5.70;99.90;;;;;;7338509;19;112319;-83
2022/01/19 11:03:21;;;;;;;50.80;27.73;;;5.70;99.90;;;;;;7340097;19;112201;-83
2022/01/19 11:05:54;;;;;;;51.80;27.33;;;5.70;99.90;;;;;;7346182;19;112791;-83
2022/01/19 11:08:24;;;;;;;50.23;28.07;;;5.80;99.90;;;;;;7339075;19;113228;-83
2022/01/19 11:10:53;;;;;;;48.30;27.03;;;5.80;99.90;;;;;;7338962;19;113650;-83
2022/01/19 11:13:32;;;;;;;53.43;27.90;;;5.80;99.90;;;;;;7340107;19;115519;-83
2022/01/19 11:16:02;;;;;;;52.67;27.73;;;5.80;99.90;;;;;;7340896;19;111934;-83
2022/01/19 11:18:30;;;;;;;45.87;28.40;;;5.80;99.90;;;;;;7337704;19;112945;-83
2022/01/19 11:21:01;;;;;;;49.67;27.87;;;5.90;99.90;;;;;;7340914;19;112547;-83
2022/01/19 11:24:01;;;;;;;42.80;26.43;;;5.90;99.90;;;;;;7338208;19;112498;-84
2022/01/19 11:26:31;;;;;;;49.20;27.70;;;5.90;99.90;;;;;;7340731;19;115995;-83
2022/01/19 11:29:19;;;;;;;49.67;27.90;;;5.90;99.90;;;;;;7345587;19;111141;-83
2022/01/19 11:31:47;;;;;;;50.93;28.47;;;5.90;99.90;;;;;;7337338;19;115831;-83
2022/01/19 11:34:35;;;;;;;48.83;27.90;;;6.00;99.90;;;;;;7341211;19;114053;-83
2022/01/19 11:37:03;;;;;;;46.75;27.13;;;6.00;99.90;;;;;;7338800;19;112299;-83
2022/01/19 11:39:30;;;;;;;48.43;27.23;;;6.00;99.90;;;;;;7339697;19;115734;-83
2022/01/19 11:42:03;;;;;;;51.43;26.47;;;6.00;99.90;;;;;;7337375;19;115601;-84
2022/01/19 11:44:33;;;;;;;53.13;27.13;;;6.00;99.90;;;;;;7338781;19;111727;-84
2022/01/19 11:47:14;;;;;;;51.17;28.30;;;6.00;99.90;;;;;;7337646;19;115525;-84
2022/01/19 11:49:49;;;;;;;49.40;27.90;;;6.00;99.90;;;;;;7344894;19;113357;-83
2022/01/19 11:52:21;;;;;;;47.67;27.63;;;5.90;99.90;;;;;;7337181;19;111675;-83
2022/01/19 11:54:49;;;;;;;54.63;28.93;;;5.90;99.90;;;;;;7336740;19;112116;-83
2022/01/19 11:57:22;;;;;;;50.57;28.30;;;5.90;99.90;;;;;;7342484;19;112653;-83
2022/01/19 11:59:50;;;;;;;50.27;27.43;;;5.90;99.90;;;;;;7335844;19;112001;-84
2022/01/19 12:02:27;;;;;;;48.53;26.83;;;6.00;99.90;;;;;;7339688;19;112099;-83
2022/01/19 12:05:27;;;;;;;48.43;27.37;;;6.00;99.90;;;;;;7337224;19;114720;-83
2022/01/19 12:08:00;;;;;;;49.23;27.00;;;5.90;99.90;;;;;;7336328;19;114144;-83
2022/01/19 12:10:30;;;;;;;48.57;27.57;;;6.00;99.90;;;;;;7338926;19;111924;-83
2022/01/19 12:13:29;;;;;;;53.27;28.33;;;6.00;99.90;;;;;;7343257;19;115043;-84
2022/01/19 12:16:04;;;;;;;;;;;6.00;99.90;;;;;;7338605;19;112381;-83
2022/01/19 12:18:37;;;;;;;51.70;27.73;;;6.00;99.90;;;;;;7339631;19;112803;-84
2022/01/19 12:21:04;;;;;;;51.20;28.20;;;6.00;99.90;;;;;;7338419;19;113161;-83
2022/01/19 12:23:34;;;;;;;49.10;27.77;;;6.10;99.90;;;;;;7336718;19;111342;-83
2022/01/19 12:26:03;;;;;;;48.67;28.93;;;6.10;99.90;;;;;;7335811;19;113977;-84
2022/01/19 12:28:42;;;;;;;49.27;28.37;;;6.20;99.90;;;;;;7338584;19;116281;-84
2022/01/19 12:31:24;;;;;;;45.27;27.20;;;6.30;99.90;;;;;;7334063;19;112034;-83
2022/01/19 12:34:04;;;;;;;51.03;27.07;;;6.30;99.90;;;;;;7340064;19;115907;-83
2022/01/19 12:36:54;;;;;;;54.03;28.00;;;6.30;99.90;;;;;;7343019;19;112569;-84
2022/01/19 12:39:28;;;;;;;45.30;25.53;;;6.30;99.90;;;;;;7337396;19;114849;-84
2022/01/19 12:42:03;;;;;;;51.13;26.73;;;6.30;99.90;;;;;;7337544;19;112610;-84
2022/01/19 12:44:42;;;;;;;51.97;26.80;;;6.30;99.90;;;;;;7335920;19;113590;-83
2022/01/19 12:47:24;;;;;;;48.50;26.33;;;6.40;99.90;;;;;;7338921;19;115508;-84
2022/01/19 12:49:53;;;;;;;49.60;27.17;;;6.40;99.90;;;;;;7335278;19;113252;-84
2022/01/19 12:52:22;;;;;;;49.67;26.67;;;6.40;99.90;;;;;;7335817;19;115972;-83
2022/01/19 12:54:50;;;;;;;49.30;25.87;;;6.40;99.90;;;;;;7337615;19;113062;-84
2022/01/19 12:57:17;;;;;;;44.43;25.63;;;6.50;99.90;;;;;;7339000;19;115806;-84
2022/01/19 12:59:51;;;;;;;49.33;25.93;;;6.40;99.90;;;;;;7340077;19;112481;-83
2022/01/19 13:02:20;;;;;;;48.23;26.60;;;6.40;99.90;;;;;;7336272;19;114473;-83
2022/01/19 13:04:48;;;;;;;47.77;27.47;;;6.50;99.90;;;;;;7334615;19;114521;-84
2022/01/19 13:07:20;;;;;;;48.70;25.77;;;6.50;99.90;;;;;;7336725;19;114854;-83
2022/01/19 13:10:38;;;;;;;51.73;26.80;;;6.50;99.90;;;;;;7337247;19;115149;-84
2022/01/19 13:13:11;;;;;;;46.93;26.43;;;6.50;99.90;;;;;;7335315;19;112101;-83
2022/01/19 13:15:44;;;;;;;52.03;26.20;;;6.50;99.90;;;;;;7335969;19;115106;-83
2022/01/19 13:18:18;;;;;;;47.33;25.87;;;6.50;99.90;;;;;;7335850;19;112836;-83
2022/01/19 13:20:51;;;;;;;45.37;26.27;;;6.60;99.90;;;;;;7342767;19;112196;-83
2022/01/19 13:23:18;;;;;;;50.13;27.17;;;6.60;99.90;;;;;;7347589;19;112516;-83
2022/01/19 13:26:02;;;;;;;50.43;26.63;;;6.60;99.90;;;;;;7340431;19;113926;-83
2022/01/19 13:28:31;;;;;;;49.37;27.80;;;6.60;99.90;;;;;;7344697;19;114666;-84
2022/01/19 13:31:18;;;;;;;49.17;27.08;;;6.70;99.90;;;;;;7337396;19;111725;-83
2022/01/19 13:33:56;;;;;;;51.07;27.10;;;6.70;99.90;;;;;;7341936;19;115378;-83
2022/01/19 13:36:25;;;;;;;49.73;25.83;;;6.70;99.90;;;;;;7342538;19;112529;-84
2022/01/19 13:38:54;;;;;;;52.10;26.60;;;6.70;99.90;;;;;;7340938;19;112590;-83
2022/01/19 13:41:22;;;;;;;53.47;27.40;;;6.60;99.90;;;;;;7341680;19;115578;-83
2022/01/19 13:43:50;;;;;;;53.20;27.20;;;6.70;99.90;;;;;;7341725;19;114131;-83
2022/01/19 13:46:28;;;;;;;55.20;27.77;;;6.70;99.90;;;;;;7348381;19;111149;-84
2022/01/19 13:49:02;;;;;;;50.50;25.63;;;6.80;99.90;;;;;;7339781;19;111203;-83
2022/01/19 13:51:30;;;;;;;48.00;26.60;;;6.80;99.90;;;;;;7343242;19;115526;-84
2022/01/19 13:54:03;;;;;;;49.40;26.23;;;6.80;99.90;;;;;;7339218;19;112337;-84
2022/01/19 13:56:36;;;;;;;53.33;27.17;;;6.80;99.90;;;;;;7343146;19;111367;-84
2022/01/19 13:59:07;;;;;;;51.27;26.53;;;6.70;99.90;;;;;;7340043;19;112972;-84
2022/01/19 14:01:37;;;;;;;49.55;25.88;;;6.70;99.90;;;;;;7342113;19;115816;-83
2022/01/19 14:04:12;;;;;;;44.87;25.70;;;6.80;99.90;;;;;;7342365;19;115041;-83
2022/01/19 14:06:41;;;;;;;49.13;26.10;;;6.80;99.90;;;;;;7346543;19;116200;-84